Strona główna
METAR-TAF:

METAR-TAF

Lotnisko :

Edgar County Airport

Paris, Illinois, Stany Zjednoczone

Szerokość geograficzna: 39-42-01N, Długość geograficzna: 087-40-11W, wysokość: 199 m

Aktualna obserwacja pogody

Raport powstał 23 minut temu, godzina 19:55 UTC
Wiatr 15 kt od zachodnio-północny zachód w porywach dochodzący do 21 kt
Temperatura -10°C
Wilgotność 72%
Ciśnienie 1029 hPa
Widzialność: 11.3 km
Zachmurzenie całkowite na wysokości 2000 ft

METAR: KPRG 191955Z AUTO 29015G21KT 7SM OVC020 M10/M14 A3040 RMK AO2 T11001136

czas: 14:18 (20:18 UTC)


TAF: brakujący

Obserwacja i prognoza pogody dla ponad 4000 lotnisk (raport METAR i TAF).

Dostępne stacje oznaczono żółtymi i czerwonymi punktami na mapie.

Najedź kursorem aby zobaczyć nazwę stacji.

Kliknij aby zobaczyć obserwacje i prognozy pogody.

Aby zmienić mapę: kliknij na zielony przycisk z czarnym krzyżykiem, aby powiększyć; na zielony przycisk z myślnikiem, aby pomniejszyć; na zielone strzałki, aby przejść do map sąsiednich.


METAR-TAF: